Friday, October 24, 2014
08:38 UTC
  |  Log In   |  Register Free
Airport Search:

John F Kennedy Memorial Airport
(KASX)

John F Kennedy Memorial Airport Diagram
No Airport Diagram Available

FAA data valid effective September 18, 2014 - November 13, 2014 (unless otherwise noted).

 
 
 
 
 
 
 
 
 
 
 
 
 
 

Current Aviation Weather for John F Kennedy Memorial Airport (KASX)

The most recent METAR observation for KASX was updated at: 0807
METAR Summary (Translated METAR)
KASX
240753Z AUTO 20004KT 4SM BR CLR 07/07 A2995 RMK AO2 SLP147 T00720067
KIWD
240755Z AUTO 17008KT 9SM BKN004 08/08 A2993 RMK AO1
(32.6 nm SE from KASX)
KHYR
240753Z AUTO 19007KT 5SM BR OVC005 09/08 A2997 RMK AO2 SLP155 T00940083
(38.2 nm SW from KASX)
TAF Summary (Translated TAF)
KIWD
(32.6 nm SE from KASX)
240532Z 2406/2506 18004KT P6SM OVC005 FM241300 20007KT P6SM SCT200 FM241700 21010G16KT P6SM SCT120 AMD LTD TO CLD VIS AND WIND
KHYR
(38.2 nm SW from KASX)
240746Z 2408/2506 19006KT 5SM BR OVC005 TEMPO 2408/2412 1SM BR OVC003 FM241200 18007KT P6SM BKN010 FM241800 19009KT P6SM SCT025 FM250000 21005KT P6SM SCT010
  Airport Weather Conditions for KASX

 Current Weather at ASX
45° F
Fog/Mist
South winds at 4.6 mph
ASX NOAA Radar

Pressure: 29.95 in
Humidity: 97%
Wind: South at 4.6 MPH (4 KT)
Dew Point: 44.1°F
Visibility: 4.00 mi


Airport Weather Forecast for KASX

Translated METAR and TAF for KASX
Translated METAR for KASX (0833 UTC 24 October 2014)
found at http://aviationweather.gov/adds/metars/
 
METAR text: KASX 240753Z AUTO 20004KT 4SM BR CLR 07/07 A2995 RMK AO2 SLP147 T00720067
Conditions at: KASX (ASHLAND , WI, US) observed 0753 UTC 24 October 2014
Temperature: 7.2°C (45°F)
Dewpoint: 6.7°C (44°F) [RH = 97%]
Pressure (altimeter): 29.95 inches Hg (1014.3 mb)
[Sea-level pressure: 1014.7 mb]
Winds: from the SSW (200 degrees) at 5 MPH (4 knots; 2.1 m/s)
Visibility: 4 miles (6 km)
Ceiling: at least 12,000 feet AGL
Clouds: sky clear below 12,000 feet AGL
Weather: BR  (mist)
Translated TAF for KASX

There is no translated TAF available for this airport

Find All Airport Services Find A Hotel Find A Rental Car Find A Golf Course Find A Restaurant $100 Hamburger



FBO's on the Field
FBO Company Facility Photos Services Transportation Aviation Fuel Prices: Prices include tax
Catering Weather Repair Courtesy Rental Type 100LL JetA JetA+ MOGAS 8087
 
John F Kennedy Memorial Airport

This FBO has not yet been rated
FS: Phillips 66
Last Updated: Oct-14
Login to update fuel prices
SS:
Contact John F Kennedy Memorial AirportMore FBO Information
 
Add another FBO Facility Photos Catering Weather Repair Courtesy Rental Type 100LL JetA JetA+ MOGAS 8087
Services Transportation Aviation Fuel Prices: Prices include tax


model-print
model-print
model-print
model-print